Time;durP1;ratioP1;P1;durP2;ratioP2;P2;SDS_P1;SDS_P2;PMS_P1;PMS_P2;Temp;Humidity;BMP_temperature;BMP_pressure;BME280_temperature;BME280_humidity;BME280_pressure;Samples;Min_cycle;Max_cycle;Signal;HPM_P1;HPM_P2
2023/09/17 00:00:23;;;;;;;27.02;18.63;;;;;;;-142.57;100.00;115900.28;5012333;28;20037;-76
2023/09/17 00:02:49;;;;;;;25.42;18.48;;;;;;;-142.57;100.00;115900.28;5007369;28;20129;-76
2023/09/17 00:05:15;;;;;;;30.80;18.83;;;;;;;-142.57;100.00;115900.28;5016528;28;20128;-77
2023/09/17 00:07:41;;;;;;;27.58;18.48;;;;;;;-142.57;100.00;115900.28;5016448;28;20030;-76
2023/09/17 00:10:07;;;;;;;29.45;19.65;;;;;;;-142.57;100.00;115900.28;5018532;28;20560;-77
2023/09/17 00:12:33;;;;;;;32.47;19.17;;;;;;;-142.57;100.00;115900.28;5018653;28;20117;-75
2023/09/17 00:14:59;;;;;;;26.48;18.80;;;;;;;-142.57;100.00;115900.28;5018981;28;20029;-75
2023/09/17 00:17:24;;;;;;;29.58;19.88;;;;;;;-142.57;100.00;115900.28;5017128;28;20038;-75
2023/09/17 00:19:50;;;;;;;30.67;19.67;;;;;;;-142.57;100.00;115900.28;5018744;28;20041;-75
2023/09/17 00:22:15;;;;;;;26.40;19.00;;;;;;;-142.57;100.00;115900.28;5018551;28;20042;-74
2023/09/17 00:24:41;;;;;;;29.45;21.00;;;;;;;-142.57;100.00;115900.28;5018728;28;20037;-75
2023/09/17 00:27:07;;;;;;;26.80;19.75;;;;;;;-142.57;100.00;115900.28;5019005;28;20025;-79
2023/09/17 00:29:33;;;;;;;27.45;19.50;;;;;;;-142.57;100.00;115900.28;5018760;28;20045;-76
2023/09/17 00:31:58;;;;;;;28.52;20.15;;;;;;;-142.57;100.00;115900.28;5018912;28;20085;-76
2023/09/17 00:34:24;;;;;;;33.58;19.88;;;;;;;-142.57;100.00;115900.28;5018790;28;20042;-75
2023/09/17 00:36:50;;;;;;;29.92;19.40;;;;;;;-142.57;100.00;115900.28;5018571;28;20042;-74
2023/09/17 00:39:15;;;;;;;27.98;18.27;;;;;;;-142.57;100.00;115900.28;5018400;28;20029;-74
2023/09/17 00:41:41;;;;;;;32.80;20.77;;;;;;;-142.57;100.00;115900.28;5017235;28;20041;-74
2023/09/17 00:44:07;;;;;;;30.73;20.85;;;;;;;-142.57;100.00;115900.28;5018658;28;20049;-75
2023/09/17 00:46:33;;;;;;;28.65;19.58;;;;;;;-142.57;100.00;115900.28;5016972;28;20041;-75
2023/09/17 00:48:59;;;;;;;27.33;17.98;;;;;;;-142.57;100.00;115900.28;5018339;28;20125;-73
2023/09/17 00:51:25;;;;;;;27.00;18.73;;;;;;;-142.57;100.00;115900.28;5018368;28;20400;-75
2023/09/17 00:53:55;;;;;;;32.05;19.17;;;;;;;-142.57;100.00;115900.28;5018222;28;20544;-77
2023/09/17 00:56:22;;;;;;;26.42;18.35;;;;;;;-142.57;100.00;115900.28;5017243;28;20121;-75
2023/09/17 00:58:48;;;;;;;28.42;19.63;;;;;;;-142.57;100.00;115900.28;5016760;28;20034;-73
2023/09/17 01:01:14;;;;;;;30.58;20.50;;;;;;;-142.57;100.00;115900.28;5018253;28;20038;-76
2023/09/17 01:03:40;;;;;;;34.03;19.83;;;;;;;-142.57;100.00;115900.28;5017960;28;20114;-77
2023/09/17 01:06:06;;;;;;;28.60;20.25;;;;;;;-142.57;100.00;115900.28;5018136;28;20052;-74
2023/09/17 01:08:32;;;;;;;29.65;20.45;;;;;;;-142.57;100.00;115900.28;5016634;28;20492;-75
2023/09/17 01:10:58;;;;;;;30.70;20.77;;;;;;;-142.57;100.00;115900.28;5016753;28;20514;-75
2023/09/17 01:13:24;;;;;;;28.77;20.40;;;;;;;-142.57;100.00;115900.28;5017834;28;20097;-74
2023/09/17 01:15:53;;;;;;;29.90;20.48;;;;;;;-142.57;100.00;115900.28;5014268;28;20034;-78
2023/09/17 01:18:21;;;;;;;31.63;20.77;;;;;;;-142.57;100.00;115900.28;5015064;28;20080;-75
2023/09/17 01:21:12;;;;;;;27.20;19.65;;;;;;;-142.57;100.00;115900.28;5014722;28;20030;-75
2023/09/17 01:23:46;;;;;;;31.38;20.63;;;;;;;-142.57;100.00;115900.28;5013593;28;20046;-74
2023/09/17 01:26:26;;;;;;;33.90;21.45;;;;;;;-142.57;100.00;115900.28;5014902;28;20105;-75
2023/09/17 01:28:55;;;;;;;31.77;22.50;;;;;;;-142.57;100.00;115900.28;5014833;28;20117;-76
2023/09/17 01:31:22;;;;;;;34.00;23.08;;;;;;;-142.57;100.00;115900.28;5014857;28;20215;-77
2023/09/17 01:33:49;;;;;;;32.63;22.58;;;;;;;-142.57;100.00;115900.28;5013196;28;20054;-75
2023/09/17 01:36:20;;;;;;;33.80;24.02;;;;;;;-142.57;100.00;115900.28;5014775;28;20073;-75
2023/09/17 01:38:49;;;;;;;37.45;23.73;;;;;;;-142.57;100.00;115900.28;5014350;28;20038;-74
2023/09/17 01:41:17;;;;;;;33.38;21.98;;;;;;;-142.57;100.00;115900.28;5013118;28;20095;-75
2023/09/17 01:43:44;;;;;;;37.10;23.38;;;;;;;-142.57;100.00;115900.28;5013010;28;20180;-75
2023/09/17 01:46:11;;;;;;;32.30;22.90;;;;;;;-142.57;100.00;115900.28;5014557;28;20045;-75
2023/09/17 01:48:38;;;;;;;33.90;22.92;;;;;;;-142.57;100.00;115900.28;5014190;28;20042;-76
2023/09/17 01:51:05;;;;;;;35.90;24.02;;;;;;;-142.57;100.00;115900.28;5014598;28;20077;-76
2023/09/17 01:53:32;;;;;;;32.47;23.38;;;;;;;-142.57;100.00;115900.28;5014431;28;20029;-74
2023/09/17 01:55:57;;;;;;;34.17;22.95;;;;;;;-142.57;100.00;115900.28;5012776;28;20069;-75
2023/09/17 01:58:23;;;;;;;41.97;25.65;;;;;;;-142.57;100.00;115900.28;5012953;28;20078;-75
2023/09/17 02:00:52;;;;;;;37.58;24.23;;;;;;;-142.57;100.00;115900.28;5016565;28;20160;-75
2023/09/17 02:03:18;;;;;;;35.65;24.65;;;;;;;-142.57;100.00;115900.28;5016134;28;20040;-77
2023/09/17 02:05:44;;;;;;;37.20;24.80;;;;;;;-142.57;100.00;115900.28;5013082;28;20048;-79
2023/09/17 02:08:09;;;;;;;35.75;24.15;;;;;;;-142.57;100.00;115900.28;5014163;28;20029;-77
2023/09/17 02:10:35;;;;;;;39.20;24.67;;;;;;;-142.57;100.00;115900.28;5014228;28;20045;-77
2023/09/17 02:13:00;;;;;;;32.85;22.27;;;;;;;-142.57;100.00;115900.28;5014288;28;20034;-76
2023/09/17 02:15:26;;;;;;;33.30;22.50;;;;;;;-142.57;100.00;115900.28;5012588;28;20544;-76
2023/09/17 02:17:52;;;;;;;34.17;23.23;;;;;;;-142.57;100.00;115900.28;5012737;28;20084;-76
2023/09/17 02:20:18;;;;;;;34.35;24.10;;;;;;;-142.57;100.00;115900.28;5012737;28;20571;-75
2023/09/17 02:22:44;;;;;;;32.55;23.25;;;;;;;-142.57;100.00;115900.28;5013893;28;20030;-78
2023/09/17 02:25:10;;;;;;;32.00;21.67;;;;;;;-142.57;100.00;115900.28;5013946;28;20053;-76
2023/09/17 02:27:35;;;;;;;33.22;21.80;;;;;;;-142.57;100.00;115900.28;5012150;28;20525;-75
2023/09/17 02:30:04;;;;;;;31.45;21.80;;;;;;;-142.57;100.00;115900.28;5013684;28;20034;-76
2023/09/17 02:32:30;;;;;;;33.92;20.92;;;;;;;-142.57;100.00;115900.28;5013291;28;20029;-74
2023/09/17 02:34:57;;;;;;;32.88;21.90;;;;;;;-142.57;100.00;115900.28;5012375;28;20077;-77
2023/09/17 02:37:23;;;;;;;28.02;19.38;;;;;;;-142.57;100.00;115900.28;5012313;28;20084;-74
2023/09/17 02:39:49;;;;;;;25.55;17.63;;;;;;;-142.57;100.00;115900.28;5012180;28;20026;-74
2023/09/17 02:42:15;;;;;;;22.33;15.13;;;;;;;-142.57;100.00;115900.28;5013539;28;20034;-76
2023/09/17 02:44:40;;;;;;;18.83;13.63;;;;;;;-142.57;100.00;115900.28;5013625;28;20034;-76
2023/09/17 02:47:06;;;;;;;20.08;13.18;;;;;;;-142.57;100.00;115900.28;5013375;28;20043;-77
2023/09/17 02:49:32;;;;;;;19.65;12.75;;;;;;;-142.57;100.00;115900.28;5012328;28;20072;-76
2023/09/17 02:51:58;;;;;;;20.55;11.15;;;;;;;-142.57;100.00;115900.28;5013199;28;20084;-76
2023/09/17 02:54:23;;;;;;;17.58;11.52;;;;;;;-142.57;100.00;115900.28;5012162;28;20042;-75
2023/09/17 02:56:49;;;;;;;16.17;11.07;;;;;;;-142.57;100.00;115900.28;5011851;28;20034;-76
2023/09/17 02:59:15;;;;;;;21.63;10.52;;;;;;;-142.57;100.00;115900.28;5012922;28;20121;-75
2023/09/17 03:01:41;;;;;;;18.00;11.00;;;;;;;-142.57;100.00;115900.28;5011223;28;20038;-76
2023/09/17 03:04:07;;;;;;;15.70;11.35;;;;;;;-142.57;100.00;115900.28;5011400;28;20029;-74
2023/09/17 03:06:36;;;;;;;14.95;10.85;;;;;;;-142.57;100.00;115900.28;5011343;28;20564;-75
2023/09/17 03:09:07;;;;;;;20.85;11.95;;;;;;;-142.57;100.00;115900.28;5011160;28;20041;-78
2023/09/17 03:11:34;;;;;;;17.60;11.57;;;;;;;-142.57;100.00;115900.28;5011509;28;20033;-76
2023/09/17 03:14:01;;;;;;;14.38;10.48;;;;;;;-142.57;100.00;115900.28;5011545;28;20088;-74
2023/09/17 03:16:27;;;;;;;15.05;10.32;;;;;;;-142.57;100.00;115900.28;5012796;28;20385;-75
2023/09/17 03:18:52;;;;;;;14.13;10.40;;;;;;;-142.57;100.00;115900.28;5011366;28;20060;-75
2023/09/17 03:21:19;;;;;;;14.35;9.85;;;;;;;-142.57;100.00;115900.28;5012594;28;20042;-74
2023/09/17 03:23:44;;;;;;;14.45;9.63;;;;;;;-142.57;100.00;115900.28;5011167;28;20121;-76
2023/09/17 03:26:10;;;;;;;15.55;9.90;;;;;;;-142.57;100.00;115900.28;5011530;28;20089;-76
2023/09/17 03:28:36;;;;;;;14.15;10.32;;;;;;;-142.57;100.00;115900.28;4995174;28;20164;-78
2023/09/17 03:31:03;;;;;;;18.75;10.18;;;;;;;-142.57;100.00;115900.28;5012762;28;20401;-75
2023/09/17 03:33:29;;;;;;;14.20;10.60;;;;;;;-142.57;100.00;115900.28;5011173;28;20378;-75
2023/09/17 03:35:55;;;;;;;15.38;10.98;;;;;;;-142.57;100.00;115900.28;5011367;28;20053;-77
2023/09/17 03:38:22;;;;;;;18.60;11.82;;;;;;;-142.57;100.00;115900.28;5010835;28;20049;-76
2023/09/17 03:40:47;;;;;;;14.98;11.55;;;;;;;-142.57;100.00;115900.28;5012399;28;20123;-76
2023/09/17 03:43:13;;;;;;;20.15;12.40;;;;;;;-142.57;100.00;115900.28;5011294;28;20477;-75
2023/09/17 03:45:41;;;;;;;20.98;12.88;;;;;;;-142.57;100.00;115900.28;5010888;28;20046;-75
2023/09/17 03:48:07;;;;;;;20.65;13.88;;;;;;;-142.57;100.00;115900.28;5011140;28;20425;-76
2023/09/17 03:50:33;;;;;;;21.65;14.57;;;;;;;-142.57;100.00;115900.28;5012365;28;20472;-75
2023/09/17 03:53:02;;;;;;;20.25;13.82;;;;;;;-142.57;100.00;115900.28;5010837;28;20034;-77
2023/09/17 03:55:28;;;;;;;21.05;14.30;;;;;;;-142.57;100.00;115900.28;5010902;28;20038;-76
2023/09/17 03:57:56;;;;;;;24.13;15.38;;;;;;;-142.57;100.00;115900.28;5011147;28;20414;-75
2023/09/17 04:00:25;;;;;;;20.10;14.50;;;;;;;-142.57;100.00;115900.28;5010944;28;20048;-75
2023/09/17 04:02:52;;;;;;;20.75;15.60;;;;;;;-142.57;100.00;115900.28;5012118;28;20034;-76
2023/09/17 04:05:18;;;;;;;23.00;14.52;;;;;;;-142.57;100.00;115900.28;5010741;28;20456;-75
2023/09/17 04:07:45;;;;;;;22.75;13.63;;;;;;;-142.57;100.00;115900.28;5010838;28;20096;-77
2023/09/17 04:10:12;;;;;;;19.70;13.48;;;;;;;-142.57;100.00;115900.28;5017952;28;20168;-72
2023/09/17 04:12:39;;;;;;;16.60;11.25;;;;;;;-142.57;100.00;115900.28;5017967;28;20441;-75
2023/09/17 04:15:10;;;;;;;14.48;10.95;;;;;;;-142.57;100.00;115900.28;5002540;28;20045;-75
2023/09/17 04:17:36;;;;;;;16.63;9.48;;;;;;;-142.57;100.00;115900.28;5027339;28;20034;-76
2023/09/17 04:20:09;;;;;;;16.83;9.55;;;;;;;-142.57;100.00;115900.28;5019028;28;20049;-74
2023/09/17 04:22:35;;;;;;;17.90;9.32;;;;;;;-142.57;100.00;115900.28;5011960;28;20040;-74
2023/09/17 04:25:00;;;;;;;11.52;8.52;;;;;;;-142.57;100.00;115900.28;5010976;28;20120;-75
2023/09/17 04:27:26;;;;;;;13.25;8.57;;;;;;;-142.57;100.00;115900.28;5015921;28;20033;-74
2023/09/17 04:29:52;;;;;;;14.75;8.52;;;;;;;-142.57;100.00;115900.28;5018166;28;20040;-74
2023/09/17 04:32:18;;;;;;;12.63;8.38;;;;;;;-142.57;100.00;115900.28;5015439;28;20065;-74
2023/09/17 04:34:43;;;;;;;13.68;7.63;;;;;;;-142.57;100.00;115900.28;5011815;28;20088;-78
2023/09/17 04:37:10;;;;;;;22.77;8.65;;;;;;;-142.57;100.00;115900.28;5010985;28;20066;-77
2023/09/17 04:39:36;;;;;;;15.40;7.43;;;;;;;-142.57;100.00;115900.28;5011218;28;20457;-73
2023/09/17 04:42:01;;;;;;;11.50;7.68;;;;;;;-142.57;100.00;115900.28;5010939;28;20033;-79
2023/09/17 04:44:28;;;;;;;9.30;7.00;;;;;;;-142.57;100.00;115900.28;5010462;28;20040;-74
2023/09/17 04:46:54;;;;;;;14.45;7.55;;;;;;;-142.57;100.00;115900.28;5010640;28;20036;-74
2023/09/17 04:49:22;;;;;;;11.68;7.45;;;;;;;-142.57;100.00;115900.28;5010601;28;20428;-76
2023/09/17 04:51:48;;;;;;;10.32;6.30;;;;;;;-142.57;100.00;115900.28;5012943;28;20040;-77
2023/09/17 04:54:13;;;;;;;11.88;7.05;;;;;;;-142.57;100.00;115900.28;5014090;28;20046;-74
2023/09/17 04:56:39;;;;;;;12.23;7.40;;;;;;;-142.57;100.00;115900.28;5015342;28;20022;-76
2023/09/17 04:59:05;;;;;;;8.70;7.55;;;;;;;-142.57;100.00;115900.28;5008218;28;20506;-77
2023/09/17 05:01:30;;;;;;;11.60;7.47;;;;;;;-142.57;100.00;115900.28;4994080;28;20061;-75
2023/09/17 05:03:57;;;;;;;11.50;7.45;;;;;;;-142.57;100.00;115900.28;4994555;28;20397;-75
2023/09/17 05:06:23;;;;;;;11.30;6.75;;;;;;;-142.57;100.00;115900.28;4993802;28;20508;-75
2023/09/17 05:08:48;;;;;;;14.70;7.72;;;;;;;-142.57;100.00;115900.28;4994418;28;20061;-75
2023/09/17 05:11:14;;;;;;;12.70;7.30;;;;;;;-142.57;100.00;115900.28;4994273;28;20394;-76
2023/09/17 05:13:40;;;;;;;11.70;7.05;;;;;;;-142.57;100.00;115900.28;4994588;28;20042;-75
2023/09/17 05:16:06;;;;;;;11.77;6.95;;;;;;;-142.57;100.00;115900.28;4995943;28;20035;-75
2023/09/17 05:18:32;;;;;;;11.38;7.57;;;;;;;-142.57;100.00;115900.28;4994385;28;20076;-75
2023/09/17 05:20:57;;;;;;;11.95;7.03;;;;;;;-142.57;100.00;115900.28;4996270;28;20042;-77
2023/09/17 05:23:24;;;;;;;13.52;7.85;;;;;;;-142.57;100.00;115900.28;4995351;28;20037;-74
2023/09/17 05:25:55;;;;;;;10.83;7.37;;;;;;;-142.57;100.00;115900.28;4998732;28;20037;-78
2023/09/17 05:28:23;;;;;;;12.05;7.63;;;;;;;-142.57;100.00;115900.28;5003439;28;20042;-74
2023/09/17 05:30:49;;;;;;;12.15;7.25;;;;;;;-142.57;100.00;115900.28;5011532;28;20026;-75
2023/09/17 05:33:15;;;;;;;12.10;7.07;;;;;;;-142.57;100.00;115900.28;5003819;28;20489;-75
2023/09/17 05:35:42;;;;;;;12.30;7.20;;;;;;;-142.57;100.00;115900.28;5005789;28;20144;-75
2023/09/17 05:38:08;;;;;;;10.93;6.93;;;;;;;-142.57;100.00;115900.28;4994748;28;20039;-74
2023/09/17 05:40:34;;;;;;;12.00;6.55;;;;;;;-142.57;100.00;115900.28;5016104;28;20088;-76
2023/09/17 05:43:00;;;;;;;10.50;6.13;;;;;;;-142.57;100.00;115900.28;5015677;28;20038;-75
2023/09/17 05:45:29;;;;;;;8.45;5.85;;;;;;;-142.57;100.00;115900.28;5013191;28;20030;-74
2023/09/17 05:47:56;;;;;;;10.20;6.28;;;;;;;-142.57;100.00;115900.28;4994441;28;20038;-76
2023/09/17 05:50:22;;;;;;;12.15;5.70;;;;;;;-142.57;100.00;115900.28;4994727;28;20045;-77
2023/09/17 05:52:48;;;;;;;13.55;5.97;;;;;;;-142.57;100.00;115900.28;4994774;28;20109;-80
2023/09/17 05:55:14;;;;;;;9.27;5.30;;;;;;;-142.57;100.00;115900.28;4999577;28;20444;-74
2023/09/17 05:57:41;;;;;;;11.68;5.63;;;;;;;-142.57;100.00;115900.28;5003103;28;20124;-77
2023/09/17 06:00:07;;;;;;;11.90;4.75;;;;;;;-142.57;100.00;115900.28;5005916;28;20102;-77
2023/09/17 06:02:42;;;;;;;8.43;5.03;;;;;;;-142.57;100.00;115900.28;5008282;28;20025;-76
2023/09/17 06:05:10;;;;;;;10.68;5.88;;;;;;;-142.57;100.00;115900.28;5002144;28;20027;-76
2023/09/17 06:07:36;;;;;;;14.15;5.63;;;;;;;-142.57;100.00;115900.28;5002096;28;20481;-76
2023/09/17 06:10:02;;;;;;;11.18;5.30;;;;;;;-142.57;100.00;115900.28;4987063;28;20037;-77
2023/09/17 06:12:27;;;;;;;12.40;5.40;;;;;;;-142.57;100.00;115900.28;5005214;28;20034;-78
2023/09/17 06:14:53;;;;;;;10.15;5.40;;;;;;;-142.57;100.00;115900.28;5006256;28;20076;-76
2023/09/17 06:17:19;;;;;;;7.70;4.45;;;;;;;-142.57;100.00;115900.28;5003012;28;20374;-77
2023/09/17 06:19:44;;;;;;;8.70;4.68;;;;;;;-142.57;100.00;115900.28;5006371;28;20476;-78
2023/09/17 06:22:11;;;;;;;8.80;4.88;;;;;;;-142.57;100.00;115900.28;5005461;28;20026;-76
2023/09/17 06:24:37;;;;;;;11.13;5.75;;;;;;;-142.57;100.00;115900.28;5003658;28;20026;-79
2023/09/17 06:27:03;;;;;;;8.43;4.57;;;;;;;-142.57;100.00;115900.28;5011250;28;20045;-79
2023/09/17 06:29:29;;;;;;;6.00;4.22;;;;;;;-142.57;100.00;115900.28;4996612;28;20094;-81
2023/09/17 06:31:55;;;;;;;8.05;4.00;;;;;;;-142.57;100.00;115900.28;5013299;28;20061;-79
2023/09/17 06:34:21;;;;;;;7.05;4.13;;;;;;;-142.57;100.00;115900.28;4988562;28;20434;-80
2023/09/17 06:36:47;;;;;;;8.68;4.20;;;;;;;-142.57;100.00;115900.28;4999598;28;20056;-81
2023/09/17 06:39:13;;;;;;;7.90;3.60;;;;;;;-142.57;100.00;115900.28;4999545;28;20081;-80
2023/09/17 06:41:39;;;;;;;7.28;3.47;;;;;;;-142.57;100.00;115900.28;5004768;28;20061;-80
2023/09/17 06:44:05;;;;;;;9.43;3.47;;;;;;;-142.57;100.00;115900.28;5004121;28;20445;-80
2023/09/17 06:46:31;;;;;;;7.75;3.20;;;;;;;-142.57;100.00;115900.28;5005425;28;20030;-81
2023/09/17 06:48:56;;;;;;;6.88;3.08;;;;;;;-142.57;99.11;115900.28;4998109;28;20461;-80
2023/09/17 06:51:22;;;;;;;11.85;3.33;;;;;;;-142.57;95.51;115900.28;5009711;28;20125;-78
2023/09/17 06:53:47;;;;;;;10.68;3.20;;;;;;;-142.57;100.00;115900.28;5006728;28;20117;-83
2023/09/17 06:56:14;;;;;;;4.85;3.10;;;;;;;-142.57;100.00;115900.28;5002327;28;20088;-80
2023/09/17 06:58:40;;;;;;;7.68;3.15;;;;;;;-142.57;100.00;115900.28;5006589;28;20043;-81
2023/09/17 07:01:07;;;;;;;8.23;3.17;;;;;;;-142.57;100.00;115900.28;5005126;28;20106;-81
2023/09/17 07:03:33;;;;;;;7.57;3.28;;;;;;;-142.57;100.00;115900.28;5007078;28;20034;-78
2023/09/17 07:05:59;;;;;;;5.82;3.03;;;;;;;-142.57;99.87;115900.28;5013270;28;20500;-79
2023/09/17 07:08:25;;;;;;;7.40;3.47;;;;;;;-142.57;100.00;115900.28;5015688;28;20489;-81
2023/09/17 07:10:51;;;;;;;10.90;3.28;;;;;;;-142.57;99.18;115900.28;5013453;28;20081;-79
2023/09/17 07:13:16;;;;;;;9.45;3.35;;;;;;;-142.57;96.77;115900.28;5002375;28;20021;-79
2023/09/17 07:15:45;;;;;;;7.38;3.58;;;;;;;-142.57;95.44;115900.28;5003555;28;20038;-78
2023/09/17 07:18:12;;;;;;;10.70;3.97;;;;;;;-142.57;93.98;115900.28;5003419;28;20045;-80
2023/09/17 07:20:41;;;;;;;8.35;4.03;;;;;;;-142.57;92.73;115900.28;5004966;28;20038;-78
2023/09/17 07:23:08;;;;;;;11.18;4.65;;;;;;;-142.57;92.97;115900.28;4993852;28;20046;-83
2023/09/17 07:25:33;;;;;;;7.20;4.70;;;;;;;-142.57;94.56;115900.28;4994745;28;20066;-84
2023/09/17 07:28:07;;;;;;;13.85;4.95;;;;;;;-142.57;91.99;115900.28;4994271;28;20493;-82
2023/09/17 07:30:34;;;;;;;9.52;5.50;;;;;;;-142.57;93.76;115900.28;5001236;28;20500;-79
2023/09/17 07:33:01;;;;;;;10.43;4.95;;;;;;;-142.57;94.24;115900.28;4994552;28;20113;-80
2023/09/17 07:35:28;;;;;;;12.88;5.10;;;;;;;-142.57;92.50;115900.28;4994749;28;20112;-86
2023/09/17 07:37:54;;;;;;;10.35;5.07;;;;;;;-142.57;89.12;115900.28;4996735;28;20033;-82
2023/09/17 07:40:19;;;;;;;8.30;5.45;;;;;;;-142.57;85.61;115900.28;5004285;28;20034;-84
2023/09/17 07:42:45;;;;;;;11.10;4.65;;;;;;;-142.57;86.18;115900.28;5002529;28;20104;-82
2023/09/17 07:45:13;;;;;;;10.25;4.90;;;;;;;-142.57;85.29;115900.28;5004190;28;20117;-83
2023/09/17 07:47:39;;;;;;;7.72;3.88;;;;;;;-142.57;84.55;115900.28;5007622;28;20042;-82
2023/09/17 07:50:05;;;;;;;10.70;4.72;;;;;;;-142.57;85.19;115900.28;5012094;28;20073;-86
2023/09/17 07:52:32;;;;;;;11.52;4.72;;;;;;;-142.57;82.50;115900.28;5006091;28;20061;-85
2023/09/17 07:54:57;;;;;;;10.55;5.03;;;;;;;-142.57;80.13;115900.28;5003050;28;20061;-85
2023/09/17 07:57:23;;;;;;;8.43;4.35;;;;;;;-142.57;77.95;115900.28;5003758;28;20058;-84
2023/09/17 07:59:49;;;;;;;11.63;3.92;;;;;;;-142.57;72.94;115900.28;5004434;28;20561;-83
2023/09/17 08:02:20;;;;;;;11.38;4.60;;;;;;;-142.57;70.52;115900.28;5011772;28;20525;-82
2023/09/17 08:04:46;;;;;;;13.75;5.03;;;;;;;-142.57;71.48;115900.28;4991623;28;20430;-82
2023/09/17 08:07:11;;;;;;;9.98;4.45;;;;;;;-142.57;73.92;115900.28;4998491;28;20058;-83
2023/09/17 08:09:38;;;;;;;10.07;4.15;;;;;;;-142.57;75.11;115900.28;5010862;28;20065;-82
2023/09/17 08:12:05;;;;;;;8.23;4.32;;;;;;;-142.57;64.26;115900.28;5014468;28;20038;-84
2023/09/17 08:14:34;;;;;;;9.30;3.88;;;;;;;-142.57;61.53;115900.28;5011811;28;20113;-83
2023/09/17 08:17:00;;;;;;;12.68;4.07;;;;;;;-142.57;60.89;115900.28;5013853;28;20108;-86
2023/09/17 08:19:26;;;;;;;12.82;4.25;;;;;;;-142.57;63.59;115900.28;4998938;28;20445;-83
2023/09/17 08:21:51;;;;;;;7.25;4.00;;;;;;;-142.57;62.01;115900.28;5012033;28;20113;-81
2023/09/17 08:24:20;;;;;;;8.52;4.35;;;;;;;-142.57;61.05;115900.28;5007806;28;20037;-80
2023/09/17 08:26:47;;;;;;;13.75;6.53;;;;;;;-142.57;63.28;115900.28;5003733;28;20154;-79
2023/09/17 08:29:12;;;;;;;16.58;9.98;;;;;;;-142.57;66.19;115900.28;5009496;28;20045;-84
2023/09/17 08:31:38;;;;;;;17.98;10.48;;;;;;;-142.57;65.87;115900.28;5006674;28;20034;-80
2023/09/17 08:34:03;;;;;;;21.02;10.52;;;;;;;-142.57;68.14;115900.28;5005953;28;20122;-81
2023/09/17 08:36:29;;;;;;;25.23;11.07;;;;;;;-142.57;68.33;115900.28;5007023;28;20034;-85
2023/09/17 08:38:55;;;;;;;24.10;12.32;;;;;;;-142.57;69.58;115900.28;5005816;28;20072;-83
2023/09/17 08:41:24;;;;;;;20.20;10.90;;;;;;;-142.57;68.47;115900.28;5014472;28;20173;-85
2023/09/17 08:43:53;;;;;;;18.50;13.20;;;;;;;-142.57;71.13;115900.28;5014238;28;20054;-85
2023/09/17 08:46:22;;;;;;;23.55;13.27;;;;;;;-142.57;70.03;115900.28;5012283;28;20030;-83
2023/09/17 08:48:48;;;;;;;18.75;12.07;;;;;;;-142.57;69.72;115900.28;5011203;28;20025;-81
2023/09/17 08:51:18;;;;;;;20.50;14.15;;;;;;;-142.57;70.70;115900.28;5010336;28;20041;-84
2023/09/17 08:54:39;;;;;;;22.40;13.82;;;;;;;-142.57;71.05;115900.28;5005680;28;20486;-79
2023/09/17 08:57:07;;;;;;;23.52;14.10;;;;;;;-142.57;71.33;115900.28;5003624;28;20043;-77
2023/09/17 08:59:41;;;;;;;21.15;13.65;;;;;;;-142.57;70.64;115900.28;5005129;28;20041;-80
2023/09/17 09:02:19;;;;;;;21.40;12.35;;;;;;;-142.57;72.73;115900.28;5011879;28;20572;-77
2023/09/17 09:04:50;;;;;;;22.55;11.98;;;;;;;-142.57;66.94;115900.28;5007086;28;20038;-82
2023/09/17 09:07:20;;;;;;;19.08;11.27;;;;;;;-142.57;66.19;115900.28;5003206;28;20046;-80
2023/09/17 09:09:47;;;;;;;25.33;12.57;;;;;;;-142.57;65.13;115900.28;5010831;28;20033;-81
2023/09/17 09:12:15;;;;;;;18.35;11.07;;;;;;;-142.57;63.68;115900.28;5005965;28;20018;-80
2023/09/17 09:14:44;;;;;;;23.05;11.40;;;;;;;-142.57;66.30;115900.28;5001996;28;20057;-83
2023/09/17 09:17:10;;;;;;;22.20;11.70;;;;;;;-142.57;66.93;115900.28;5006073;28;20049;-78
2023/09/17 09:19:36;;;;;;;21.30;11.43;;;;;;;-142.57;64.07;115900.28;5003874;28;20038;-81
2023/09/17 09:22:02;;;;;;;17.83;11.13;;;;;;;-142.57;66.13;115900.28;5003312;28;20374;-84
2023/09/17 09:24:44;;;;;;;20.55;11.40;;;;;;;-142.57;64.37;115900.28;5005132;28;20049;-79
2023/09/17 09:27:10;;;;;;;18.15;11.15;;;;;;;-142.57;65.78;115900.28;5006866;28;20500;-82
2023/09/17 09:29:42;;;;;;;17.85;11.02;;;;;;;-142.57;67.27;115900.28;5004351;28;20165;-84
2023/09/17 09:32:09;;;;;;;16.10;11.30;;;;;;;-142.57;66.58;115900.28;5008238;28;20030;-80
2023/09/17 09:34:40;;;;;;;18.05;11.02;;;;;;;-142.57;69.39;115900.28;5005917;28;20499;-81
2023/09/17 09:37:06;;;;;;;18.67;12.57;;;;;;;-142.57;68.05;115900.28;5004768;28;20539;-84
2023/09/17 09:39:34;;;;;;;16.23;10.30;;;;;;;-142.57;68.18;115900.28;5005946;28;20075;-83
2023/09/17 09:42:01;;;;;;;24.38;9.00;;;;;;;-142.57;67.70;115900.28;4980279;28;20153;-87
2023/09/17 09:44:29;;;;;;;16.33;9.95;;;;;;;-142.57;67.54;115900.28;5002294;28;20034;-82
2023/09/17 09:46:59;;;;;;;13.98;9.40;;;;;;;-142.57;66.93;115900.28;5015142;28;20037;-84
2023/09/17 09:49:26;;;;;;;14.13;9.30;;;;;;;-142.57;65.06;115900.28;5005950;28;20030;-82
2023/09/17 09:51:52;;;;;;;18.60;9.30;;;;;;;-142.57;63.64;115900.28;4995992;28;20030;-82
2023/09/17 09:54:18;;;;;;;18.23;9.85;;;;;;;-142.57;65.04;115900.28;4995816;28;20038;-84
2023/09/17 09:56:47;;;;;;;15.15;8.35;;;;;;;-142.57;64.28;115900.28;4995779;28;20093;-84
2023/09/17 09:59:14;;;;;;;14.32;7.55;;;;;;;-142.57;65.81;115900.28;5001778;28;20064;-81
2023/09/17 10:01:41;;;;;;;13.50;7.30;;;;;;;-142.57;65.75;115900.28;5016266;28;20062;-81
2023/09/17 10:04:09;;;;;;;14.60;7.03;;;;;;;-142.57;64.11;115900.28;5006702;28;20169;-82
2023/09/17 10:06:39;;;;;;;13.48;7.97;;;;;;;-142.57;65.83;115900.28;4997074;28;20026;-83
2023/09/17 10:09:10;;;;;;;12.98;8.27;;;;;;;-142.57;66.23;115900.28;5005090;28;20518;-84
2023/09/17 10:11:37;;;;;;;16.58;8.73;;;;;;;-142.57;67.08;115900.28;5002499;28;20042;-82
2023/09/17 10:14:05;;;;;;;16.67;7.68;;;;;;;-142.57;66.51;115900.28;5021766;28;20481;-84
2023/09/17 10:16:33;;;;;;;14.27;7.63;;;;;;;-142.57;65.87;115900.28;5012454;28;20054;-82
2023/09/17 10:19:00;;;;;;;17.00;7.50;;;;;;;-142.57;65.96;115900.28;5012175;28;20042;-84
2023/09/17 10:21:27;;;;;;;14.48;9.95;;;;;;;-142.57;66.04;115900.28;5003018;28;20549;-80
2023/09/17 10:23:57;;;;;;;15.80;8.60;;;;;;;-142.57;66.97;115900.28;5007300;28;20026;-81
2023/09/17 10:26:24;;;;;;;15.23;8.30;;;;;;;-142.57;66.67;115900.28;4998798;28;20092;-81
2023/09/17 10:28:56;;;;;;;14.93;8.50;;;;;;;-142.57;67.63;115900.28;4996625;28;20034;-82
2023/09/17 10:31:23;;;;;;;15.15;9.05;;;;;;;-142.57;66.42;115900.28;5002925;28;20042;-82
2023/09/17 10:33:51;;;;;;;18.95;8.98;;;;;;;-142.57;66.08;115900.28;5010336;28;20026;-82
2023/09/17 10:36:17;;;;;;;13.25;7.80;;;;;;;-142.57;66.42;115900.28;5007946;28;20019;-80
2023/09/17 10:38:46;;;;;;;13.90;7.90;;;;;;;-142.57;65.54;115900.28;5007304;28;20070;-81
2023/09/17 10:41:13;;;;;;;20.10;8.93;;;;;;;-142.57;66.13;115900.28;5003581;28;20042;-84
2023/09/17 10:43:39;;;;;;;19.70;9.38;;;;;;;-142.57;66.54;115900.28;5004234;28;20092;-83
2023/09/17 10:46:06;;;;;;;15.95;8.27;;;;;;;-142.57;68.15;115900.28;5008969;28;20054;-82
2023/09/17 10:48:33;;;;;;;15.70;8.45;;;;;;;-142.57;65.76;115900.28;5006440;28;20084;-83
2023/09/17 10:51:00;;;;;;;16.00;9.50;;;;;;;-142.57;66.18;115900.28;5013824;28;20077;-81
2023/09/17 10:53:26;;;;;;;26.35;13.00;;;;;;;-142.57;65.19;115900.28;5019744;28;20062;-86